Time;durP1;ratioP1;P1;durP2;ratioP2;P2;SDS_P1;SDS_P2;PMS_P1;PMS_P2;Temp;Humidity;BMP_temperature;BMP_pressure;BME280_temperature;BME280_humidity;BME280_pressure;Samples;Min_cycle;Max_cycle;Signal;HPM_P1;HPM_P2
2024/01/14 00:05:37;;;;;;;2.97;0.80;;;;;;;16.67;51.82;100865.28;21030042;28;20055;-69
2024/01/14 00:15:38;;;;;;;1.38;0.52;;;;;;;16.66;51.44;100857.34;21016833;28;20809;-69
2024/01/14 00:25:40;;;;;;;2.53;0.88;;;;;;;16.68;51.40;100858.06;21016224;28;20040;-69
2024/01/14 00:35:42;;;;;;;1.33;0.60;;;;;;;16.63;51.24;100849.56;21001452;28;20055;-69
2024/01/14 00:45:46;;;;;;;2.42;0.60;;;;;;;16.61;51.22;100828.16;20993320;28;20051;-69
2024/01/14 00:55:48;;;;;;;2.08;0.70;;;;;;;16.65;50.96;100831.47;21005991;28;20428;-69
2024/01/14 01:05:50;;;;;;;2.25;0.70;;;;;;;16.65;50.69;100813.47;20990843;28;20507;-69
2024/01/14 01:15:51;;;;;;;2.22;0.70;;;;;;;16.61;50.70;100822.78;20986871;28;20048;-69
2024/01/14 01:25:53;;;;;;;3.13;0.70;;;;;;;16.61;50.79;100811.19;20985217;28;20487;-69
2024/01/14 01:35:55;;;;;;;3.30;0.50;;;;;;;16.60;50.71;100799.56;21003874;28;20051;-69
2024/01/14 01:45:57;;;;;;;1.38;0.70;;;;;;;16.64;50.42;100787.59;20978114;28;20129;-69
2024/01/14 01:55:59;;;;;;;2.17;0.60;;;;;;;16.65;50.43;100791.97;21001437;28;20056;-69
2024/01/14 02:06:02;;;;;;;2.97;0.60;;;;;;;16.66;50.35;100788.31;21000692;28;20052;-69
2024/01/14 02:16:04;;;;;;;2.25;0.50;;;;;;;16.68;50.21;100780.97;21012456;28;20111;-69
2024/01/14 02:26:05;;;;;;;1.35;0.60;;;;;;;16.68;50.27;100783.66;21000347;28;20178;-69
2024/01/14 02:36:07;;;;;;;2.58;0.70;;;;;;;16.70;50.16;100771.91;20985590;28;20134;-69
2024/01/14 02:46:09;;;;;;;1.35;0.57;;;;;;;16.65;50.18;100753.50;20981704;28;20052;-69
2024/01/14 02:56:11;;;;;;;1.73;0.50;;;;;;;16.65;50.23;100751.66;20989995;28;20548;-69
2024/01/14 03:06:13;;;;;;;1.15;0.40;;;;;;;16.65;50.11;100745.44;21020121;28;20680;-69
2024/01/14 03:16:15;;;;;;;1.15;0.43;;;;;;;16.61;49.82;100735.94;20981750;28;20056;-69
2024/01/14 03:26:17;;;;;;;1.80;0.50;;;;;;;16.59;49.86;100737.91;21008076;28;20063;-69
2024/01/14 03:36:18;;;;;;;2.65;0.68;;;;;;;16.55;49.71;100741.81;21021601;28;20496;-69
2024/01/14 03:46:20;;;;;;;1.58;0.50;;;;;;;16.46;49.88;100727.34;21041529;28;20562;-69
2024/01/14 03:56:22;;;;;;;1.50;0.47;;;;;;;16.48;49.85;100720.00;21023965;28;20043;-69
2024/01/14 04:06:24;;;;;;;1.45;0.50;;;;;;;16.48;49.95;100720.84;21009529;28;20089;-69
2024/01/14 04:16:26;;;;;;;1.92;0.60;;;;;;;16.46;49.80;100690.56;21025990;28;20528;-69
2024/01/14 04:26:28;;;;;;;1.40;0.50;;;;;;;16.45;49.82;100679.97;21024971;28;20552;-69
2024/01/14 04:36:30;;;;;;;1.73;0.50;;;;;;;16.44;49.56;100676.41;21007219;28;20098;-69
2024/01/14 04:46:32;;;;;;;1.25;0.50;;;;;;;16.45;49.49;100669.22;21004080;28;20050;-69
2024/01/14 04:56:34;;;;;;;1.95;0.95;;;;;;;16.42;49.50;100664.94;21020673;28;20058;-69
2024/01/14 05:06:35;;;;;;;3.25;0.60;;;;;;;16.41;49.47;100663.25;21021347;28;20496;-69
2024/01/14 05:16:37;;;;;;;1.50;0.60;;;;;;;16.40;49.46;100660.72;21003664;28;20050;-69
2024/01/14 05:26:40;;;;;;;1.90;0.50;;;;;;;16.33;49.42;100637.03;21013792;28;20097;-69
2024/01/14 05:36:42;;;;;;;1.40;0.50;;;;;;;16.36;49.31;100628.75;21013711;28;20441;-69
2024/01/14 05:46:44;;;;;;;1.90;0.60;;;;;;;16.31;49.16;100620.19;20990401;28;20563;-69
2024/01/14 05:56:45;;;;;;;1.50;0.52;;;;;;;16.32;49.17;100623.75;21005897;28;20066;-69
2024/01/14 06:06:47;;;;;;;2.60;0.55;;;;;;;16.28;49.09;100612.41;20970036;28;20488;-69
2024/01/14 06:16:49;;;;;;;1.90;0.55;;;;;;;16.31;48.92;100604.09;20982755;28;20052;-69
2024/01/14 06:26:52;;;;;;;1.50;0.55;;;;;;;16.33;48.95;100594.06;20988911;28;20134;-69
2024/01/14 06:36:54;;;;;;;1.30;0.43;;;;;;;16.32;48.88;100588.84;21023578;28;20055;-69
2024/01/14 06:46:56;;;;;;;1.38;0.50;;;;;;;16.33;48.96;100575.25;21001033;28;20051;-69
2024/01/14 06:56:58;;;;;;;1.88;0.63;;;;;;;16.36;48.99;100574.16;20995569;28;20059;-69
2024/01/14 07:06:59;;;;;;;0.77;0.30;;;;;;;16.37;48.88;100557.91;20985965;28;20076;-69
2024/01/14 07:17:01;;;;;;;1.73;0.40;;;;;;;16.38;48.74;100551.53;20994092;28;20733;-69
2024/01/14 07:27:04;;;;;;;1.30;0.40;;;;;;;16.38;48.73;100558.75;21012179;28;20047;-69
2024/01/14 07:37:05;;;;;;;1.42;0.60;;;;;;;16.37;48.71;100551.66;20995335;28;20207;-69
2024/01/14 07:47:07;;;;;;;1.98;0.70;;;;;;;16.34;49.41;100557.31;20977991;28;20051;-65
2024/01/14 07:57:09;;;;;;;2.13;0.50;;;;;;;16.54;48.98;100552.88;20975840;28;20055;-65
2024/01/14 08:07:11;;;;;;;1.95;0.50;;;;;;;16.76;48.67;100553.63;21003421;28;20047;-65
2024/01/14 08:17:13;;;;;;;0.95;0.40;;;;;;;16.93;48.23;100547.59;20988127;28;20052;-65
2024/01/14 08:27:15;;;;;;;2.00;0.38;;;;;;;17.06;47.84;100546.50;20942060;28;20391;-65
2024/01/14 08:37:17;;;;;;;1.00;0.40;;;;;;;17.14;47.56;100543.97;20959578;28;20052;-65
2024/01/14 08:47:19;;;;;;;0.98;0.50;;;;;;;17.21;47.44;100523.59;20951624;28;20514;-66
2024/01/14 08:57:21;;;;;;;0.43;0.30;;;;;;;17.30;47.25;100516.50;21021782;28;20047;-66
2024/01/14 09:07:23;;;;;;;0.95;0.30;;;;;;;17.40;47.06;100506.59;21035429;28;20055;-65
2024/01/14 09:17:24;;;;;;;0.75;0.35;;;;;;;17.48;46.89;100497.81;21009557;28;20507;-66
2024/01/14 09:27:30;;;;;;;1.20;0.40;;;;;;;17.52;46.78;100503.78;21004657;28;20051;-66
2024/01/14 09:37:32;;;;;;;0.70;0.30;;;;;;;17.57;46.75;100501.50;21020937;28;20048;-65
2024/01/14 09:47:35;;;;;;;1.45;0.70;;;;;;;17.58;46.61;100495.13;20983660;28;20047;-66
2024/01/14 09:57:37;;;;;;;1.13;0.40;;;;;;;17.66;46.53;100500.63;21017002;28;20135;-65
2024/01/14 10:07:39;;;;;;;0.88;0.50;;;;;;;17.78;46.57;100486.97;21034745;28;20047;-65
2024/01/14 10:17:44;;;;;;;0.75;0.20;;;;;;;17.81;46.51;100471.41;20986051;28;20044;-65
2024/01/14 10:27:47;;;;;;;1.67;0.30;;;;;;;17.80;46.60;100467.00;21041512;28;20048;-64
2024/01/14 10:37:48;;;;;;;0.57;0.38;;;;;;;17.83;46.57;100453.25;21028673;28;20052;-64
2024/01/14 10:47:56;;;;;;;0.40;0.20;;;;;;;17.88;46.59;100441.19;20997016;28;20051;-64
2024/01/14 10:57:59;;;;;;;0.95;0.40;;;;;;;17.93;46.54;100412.81;21028017;28;20070;-65
2024/01/14 11:08:03;;;;;;;0.98;0.30;;;;;;;17.86;46.67;100403.63;21028284;28;20051;-64
2024/01/14 11:18:09;;;;;;;0.95;0.32;;;;;;;17.80;46.63;100382.69;20980366;28;20134;-65
2024/01/14 11:28:13;;;;;;;0.63;0.50;;;;;;;17.81;46.65;100363.69;20978853;28;20063;-65
2024/01/14 11:38:37;;;;;;;1.58;0.85;;;;;;;17.82;46.75;100349.25;20992887;28;20048;-64
2024/01/14 11:48:39;;;;;;;0.70;0.70;;;;;;;17.95;46.56;100334.56;21032412;28;20048;-65
2024/01/14 11:58:41;;;;;;;0.63;0.55;;;;;;;17.91;46.53;100309.81;21024601;28;20071;-64
2024/01/14 12:08:43;;;;;;;0.85;0.60;;;;;;;17.89;46.65;100294.78;20995573;28;20044;-64
2024/01/14 12:18:45;;;;;;;0.68;0.47;;;;;;;17.87;46.53;100273.38;21025809;28;20455;-64
2024/01/14 12:28:47;;;;;;;1.55;0.65;;;;;;;17.87;46.72;100264.47;21023629;28;20044;-64
2024/01/14 12:38:49;;;;;;;0.47;0.40;;;;;;;17.85;46.58;100232.28;20991598;28;20109;-65
2024/01/14 12:48:51;;;;;;;1.58;0.65;;;;;;;17.85;46.64;100207.22;21012435;28;20055;-65
2024/01/14 12:59:06;;;;;;;1.33;0.80;;;;;;;17.89;46.55;100181.69;21007372;28;20424;-65
2024/01/14 13:09:08;;;;;;;1.08;0.80;;;;;;;17.89;46.61;100155.59;21019005;28;21008;-64
2024/01/14 13:19:10;;;;;;;1.42;0.65;;;;;;;17.87;46.65;100140.59;21013207;28;20109;-64
2024/01/14 13:29:12;;;;;;;2.05;1.10;;;;;;;17.91;46.58;100131.22;20993897;28;20138;-64
2024/01/14 13:39:14;;;;;;;2.53;1.05;;;;;;;17.90;46.61;100118.75;20981822;28;20476;-65
2024/01/14 13:49:16;;;;;;;1.40;0.90;;;;;;;17.76;46.61;100098.59;21006809;28;20159;-65
2024/01/14 13:59:18;;;;;;;1.67;1.00;;;;;;;17.81;46.74;100094.44;21013069;28;20109;-64
2024/01/14 14:09:20;;;;;;;1.20;0.85;;;;;;;17.79;46.88;100084.81;21036050;28;20080;-65
2024/01/14 14:19:22;;;;;;;2.83;0.80;;;;;;;17.74;46.82;100088.00;21017580;28;20036;-65
2024/01/14 14:29:23;;;;;;;1.00;0.68;;;;;;;17.71;46.87;100061.41;20980345;28;20150;-65
2024/01/14 14:39:27;;;;;;;0.65;0.65;;;;;;;17.69;47.00;100041.88;21001249;28;20482;-65
2024/01/14 14:49:29;;;;;;;0.98;0.52;;;;;;;17.62;47.06;100040.78;21022748;28;20040;-65
2024/01/14 14:59:31;;;;;;;0.70;0.63;;;;;;;17.59;47.00;100033.88;21008003;28;20068;-65
2024/01/14 15:09:33;;;;;;;1.00;0.43;;;;;;;17.60;47.10;100013.16;20992026;28;20040;-65
2024/01/14 15:19:35;;;;;;;0.75;0.60;;;;;;;17.56;47.06;100003.72;20968446;28;20086;-64
2024/01/14 15:29:37;;;;;;;1.05;0.50;;;;;;;17.50;47.36;99992.59;21004744;28;20047;-65
2024/01/14 15:39:38;;;;;;;0.60;0.52;;;;;;;17.50;47.52;99968.38;21042238;28;20048;-64
2024/01/14 15:49:40;;;;;;;1.05;0.50;;;;;;;17.54;47.48;99950.06;20981270;28;20056;-65
2024/01/14 15:59:42;;;;;;;0.98;0.50;;;;;;;17.59;47.45;99945.06;20997710;28;20055;-66
2024/01/14 16:09:44;;;;;;;0.50;0.40;;;;;;;17.60;47.63;99932.44;21005827;28;20558;-66
2024/01/14 16:19:46;;;;;;;1.00;0.38;;;;;;;17.52;48.52;99922.47;20984277;28;20052;-67
2024/01/14 16:29:47;;;;;;;1.75;0.65;;;;;;;17.22;49.46;99903.91;21002864;28;20048;-66
2024/01/14 16:39:50;;;;;;;3.30;0.90;;;;;;;17.22;50.88;99903.91;21004113;28;20097;-67
2024/01/14 16:49:52;;;;;;;1.02;0.70;;;;;;;17.21;52.11;99896.84;20998749;28;20044;-65
2024/01/14 16:59:55;;;;;;;1.92;0.63;;;;;;;17.05;53.79;99864.44;21020894;28;20048;-67
2024/01/14 17:09:56;;;;;;;0.82;0.50;;;;;;;17.29;54.06;99874.53;20988108;28;20059;-68
2024/01/14 17:19:58;;;;;;;2.08;0.60;;;;;;;17.34;54.02;99866.00;21003231;28;20546;-71
2024/01/14 17:30:00;;;;;;;1.45;0.50;;;;;;;17.32;54.18;99851.88;20995190;28;20048;-72
2024/01/14 17:40:02;;;;;;;1.70;0.40;;;;;;;17.20;53.85;99816.31;20964845;28;20054;-72
2024/01/14 17:50:04;;;;;;;0.68;0.32;;;;;;;17.46;53.44;99835.13;20956492;28;20090;-71
2024/01/14 18:00:06;;;;;;;0.73;0.40;;;;;;;17.28;53.27;99808.31;20944912;28;20048;-69
2024/01/14 18:10:09;;;;;;;0.95;0.30;;;;;;;17.37;53.13;99828.03;20961078;28;22320;-67
2024/01/14 18:20:11;;;;;;;1.33;0.40;;;;;;;17.36;52.99;99812.91;20930521;28;20051;-67
2024/01/14 18:30:13;;;;;;;0.80;0.30;;;;;;;17.40;52.70;99806.19;20969320;28;20186;-68
2024/01/14 18:40:15;;;;;;;1.08;0.50;;;;;;;17.40;52.41;99790.03;20975388;28;20052;-66
2024/01/14 18:50:17;;;;;;;1.10;0.50;;;;;;;17.39;52.36;99788.34;20989166;28;20079;-66
2024/01/14 19:00:18;;;;;;;2.20;0.50;;;;;;;17.25;51.81;99760.19;21020104;28;20051;-68
2024/01/14 19:10:20;;;;;;;1.42;0.68;;;;;;;17.12;51.40;99760.63;21023394;28;20140;-68
2024/01/14 19:20:22;;;;;;;2.10;0.63;;;;;;;16.98;51.13;99747.78;21030639;28;20052;-68
2024/01/14 19:30:24;;;;;;;2.20;0.60;;;;;;;16.90;50.91;99733.25;21048121;28;20141;-67
2024/01/14 19:40:26;;;;;;;1.52;0.65;;;;;;;16.80;50.60;99724.47;21025863;28;20052;-68
2024/01/14 19:50:28;;;;;;;1.08;0.63;;;;;;;16.74;50.55;99707.09;21000167;28;20044;-68
2024/01/14 20:00:30;;;;;;;2.97;0.70;;;;;;;16.72;50.34;99721.69;20990697;28;20049;-68
2024/01/14 20:10:32;;;;;;;1.20;0.50;;;;;;;16.68;49.96;99721.19;21000423;28;20052;-68
2024/01/14 20:20:34;;;;;;;0.50;0.47;;;;;;;16.67;49.91;99712.25;20993673;28;20048;-68
2024/01/14 20:30:36;;;;;;;1.15;0.55;;;;;;;16.62;49.82;99695.78;20981764;28;20081;-67
2024/01/14 20:40:38;;;;;;;1.73;0.93;;;;;;;16.61;49.64;99702.16;21007185;28;20385;-68
2024/01/14 20:50:40;;;;;;;6.38;2.80;;;;;;;16.65;49.84;99726.88;20966134;28;20078;-67
2024/01/14 21:00:41;;;;;;;2.95;1.38;;;;;;;16.59;52.21;99690.72;20987451;28;20066;-67
2024/01/14 21:10:43;;;;;;;2.83;0.90;;;;;;;16.64;52.68;99674.13;21010203;28;20048;-67
2024/01/14 21:20:45;;;;;;;1.52;0.70;;;;;;;16.71;52.51;99655.50;20975410;28;20505;-67
2024/01/14 21:30:47;;;;;;;1.90;0.70;;;;;;;16.72;52.01;99655.38;20995989;28;20054;-67
2024/01/14 21:40:49;;;;;;;1.95;0.80;;;;;;;16.71;51.59;99656.38;20954748;28;20045;-67
2024/01/14 21:50:51;;;;;;;1.85;0.70;;;;;;;16.66;51.47;99654.16;20980575;28;20047;-67
2024/01/14 22:00:52;;;;;;;1.20;0.65;;;;;;;16.65;51.19;99668.59;20963677;28;20121;-67
2024/01/14 22:10:54;;;;;;;1.17;0.60;;;;;;;16.48;50.97;99642.63;21011573;28;20601;-67
2024/01/14 22:20:56;;;;;;;0.80;0.50;;;;;;;16.54;50.77;99647.34;21014443;28;20525;-67
2024/01/14 22:30:58;;;;;;;1.50;0.57;;;;;;;16.47;50.58;99649.81;21012253;28;20044;-67
2024/01/14 22:41:00;;;;;;;1.27;0.50;;;;;;;16.43;50.18;99642.25;21009118;28;20496;-67
2024/01/14 22:51:02;;;;;;;1.40;0.63;;;;;;;16.37;50.10;99646.41;20989168;28;20059;-67
2024/01/14 23:01:04;;;;;;;1.08;0.55;;;;;;;16.33;49.98;99637.81;20985891;28;20580;-67
2024/01/14 23:11:06;;;;;;;2.58;0.50;;;;;;;16.27;49.89;99625.00;21014328;28;20052;-67
2024/01/14 23:21:08;;;;;;;1.55;0.60;;;;;;;16.21;49.68;99602.31;20992383;28;20048;-68
2024/01/14 23:31:10;;;;;;;1.85;0.70;;;;;;;16.20;49.31;99610.53;21011297;28;20123;-67
2024/01/14 23:41:12;;;;;;;2.33;0.80;;;;;;;16.16;49.14;99606.47;21041015;28;20563;-67
2024/01/14 23:51:14;;;;;;;1.90;0.70;;;;;;;16.15;48.89;99586.00;21027358;28;20415;-67
